createdAt,value
2018-06-11T00:01:53.468Z,74.00
2018-06-11T00:04:21.791Z,74.10
2018-06-11T00:06:50.131Z,74.10
2018-06-11T00:09:18.483Z,74.20
2018-06-11T00:11:46.832Z,74.00
2018-06-11T00:14:15.152Z,74.20
2018-06-11T00:16:43.491Z,74.50
2018-06-11T00:19:11.815Z,74.60
2018-06-11T00:21:40.159Z,74.50
2018-06-11T00:24:08.480Z,74.50
2018-06-11T00:26:36.834Z,74.60
2018-06-11T00:29:05.160Z,74.50
2018-06-11T00:31:33.509Z,74.50
2018-06-11T00:34:02.043Z,74.50
2018-06-11T00:36:30.397Z,74.50
2018-06-11T00:38:58.707Z,74.50
2018-06-11T00:41:27.047Z,74.40
2018-06-11T00:43:55.364Z,74.30
2018-06-11T00:48:51.819Z,74.40
2018-06-11T00:51:20.173Z,74.40
2018-06-11T00:53:48.502Z,74.50
2018-06-11T00:56:16.848Z,74.60
2018-06-11T00:58:45.198Z,74.80
2018-06-11T01:01:13.543Z,74.80
2018-06-11T01:03:46.835Z,74.90
2018-06-11T01:06:15.168Z,74.80
2018-06-11T01:08:43.727Z,74.50
2018-06-11T01:11:12.091Z,73.90
2018-06-11T01:13:40.472Z,74.50
2018-06-11T01:16:08.836Z,74.40
2018-06-11T01:18:37.223Z,74.30
2018-06-11T01:21:05.595Z,74.10
2018-06-11T01:23:34.077Z,74.40
2018-06-11T01:26:02.524Z,74.20
2018-06-11T01:30:58.966Z,74.30
2018-06-11T01:33:27.360Z,74.40
2018-06-11T01:38:23.805Z,74.30
2018-06-11T01:45:48.337Z,74.20
2018-06-11T01:50:44.780Z,73.90
2018-06-11T01:53:13.151Z,74.10
2018-06-11T01:55:41.479Z,73.70
2018-06-11T01:58:09.843Z,74.10
2018-06-11T02:00:38.195Z,73.80
2018-06-11T02:05:34.640Z,73.60
2018-06-11T02:08:03.101Z,73.60
2018-06-11T02:10:31.453Z,73.60
2018-06-11T02:12:59.816Z,73.40
2018-06-11T02:15:28.155Z,73.40
2018-06-11T02:17:56.544Z,73.40
2018-06-11T02:22:52.976Z,73.40
2018-06-11T02:25:21.333Z,73.60
2018-06-11T02:27:49.708Z,73.30
2018-06-11T02:30:18.049Z,73.20
2018-06-11T02:32:46.438Z,73.10
2018-06-11T02:35:14.788Z,73.20
2018-06-11T02:37:43.144Z,73.10
2018-06-11T02:40:11.535Z,73.30
2018-06-11T02:42:39.879Z,73.50
2018-06-11T02:45:08.258Z,73.60
2018-06-11T02:47:36.604Z,74.10
2018-06-11T02:52:33.319Z,73.60
2018-06-11T02:55:01.704Z,73.70
2018-06-11T02:57:30.096Z,73.80
2018-06-11T02:59:58.470Z,73.70
2018-06-11T03:02:26.812Z,73.90
2018-06-11T03:04:55.192Z,73.90
2018-06-11T03:07:23.564Z,73.70
2018-06-11T03:09:51.948Z,73.80
2018-06-11T03:12:20.300Z,73.70
2018-06-11T03:14:48.670Z,73.40
2018-06-11T03:17:17.010Z,73.20
2018-06-11T03:19:45.388Z,73.30
2018-06-11T03:22:13.735Z,73.20
2018-06-11T03:24:42.115Z,73.00
2018-06-11T03:27:10.456Z,73.00
2018-06-11T03:29:38.827Z,72.80
2018-06-11T03:32:07.168Z,72.70
2018-06-11T03:34:35.561Z,72.70
2018-06-11T03:37:03.945Z,72.70
2018-06-11T03:39:32.297Z,73.10
2018-06-11T03:42:00.677Z,73.10
2018-06-11T03:44:29.012Z,73.30
2018-06-11T03:46:57.385Z,73.20
2018-06-11T03:49:25.719Z,73.90
2018-06-11T03:51:54.083Z,72.70
2018-06-11T03:54:22.431Z,72.90
2018-06-11T03:59:18.878Z,74.00
2018-06-11T04:01:47.251Z,73.20
2018-06-11T04:04:15.667Z,73.10
2018-06-11T04:06:44.100Z,72.80
2018-06-11T04:09:12.475Z,72.70
2018-06-11T04:11:40.848Z,72.80
2018-06-11T04:14:09.185Z,72.40
2018-06-11T04:16:37.561Z,72.10
2018-06-11T04:19:06.237Z,71.90
2018-06-11T04:21:34.611Z,71.70
2018-06-11T04:24:02.959Z,71.80
2018-06-11T04:26:31.327Z,71.80
2018-06-11T04:28:59.679Z,71.90
2018-06-11T04:31:28.052Z,71.70
2018-06-11T04:33:56.390Z,71.30
2018-06-11T04:36:24.748Z,71.40
2018-06-11T04:38:53.094Z,71.20
2018-06-11T04:41:21.464Z,70.90
2018-06-11T04:43:49.804Z,70.60
2018-06-11T04:46:18.181Z,70.80
2018-06-11T04:48:46.516Z,70.90
2018-06-11T04:51:14.888Z,71.00
2018-06-11T04:53:43.235Z,71.10
2018-06-11T04:56:11.600Z,71.30
2018-06-11T04:58:39.935Z,71.30
2018-06-11T05:01:08.283Z,70.80
2018-06-11T05:03:36.647Z,70.40
2018-06-11T05:06:04.987Z,70.50
2018-06-11T05:08:33.387Z,70.60
2018-06-11T05:11:01.792Z,70.60
2018-06-11T05:13:30.182Z,70.50
2018-06-11T05:18:26.639Z,70.30
2018-06-11T05:23:23.125Z,70.10
2018-06-11T05:25:52.392Z,70.40
2018-06-11T05:28:21.676Z,70.70
2018-06-11T05:30:50.348Z,70.80
2018-06-11T05:33:19.096Z,70.80
2018-06-11T05:35:47.459Z,70.90
2018-06-11T05:38:15.856Z,70.40
2018-06-11T05:40:44.226Z,70.10
2018-06-11T05:43:12.605Z,70.10
2018-06-11T05:45:40.956Z,70.20
2018-06-11T05:50:37.425Z,69.80
2018-06-11T05:53:05.856Z,70.00
2018-06-11T05:55:34.239Z,69.70
2018-06-11T05:58:03.061Z,69.30
2018-06-11T06:02:59.545Z,68.80
2018-06-11T06:05:27.910Z,68.90
2018-06-11T06:07:56.311Z,69.10
2018-06-11T06:10:24.674Z,68.70
2018-06-11T06:12:53.045Z,68.80
2018-06-11T06:15:21.407Z,68.80
2018-06-11T06:17:49.885Z,69.00
2018-06-11T06:20:18.249Z,69.00
2018-06-11T06:22:46.685Z,68.60
2018-06-11T06:25:15.082Z,68.20
2018-06-11T06:27:43.486Z,68.20
2018-06-11T06:30:11.849Z,68.40
2018-06-11T06:32:40.252Z,68.30
2018-06-11T06:35:08.609Z,68.10
2018-06-11T06:37:36.980Z,67.90
2018-06-11T06:40:05.446Z,67.80
2018-06-11T06:42:35.658Z,67.60
2018-06-11T06:45:04.556Z,67.50
2018-06-11T06:47:32.939Z,67.30
2018-06-11T06:50:01.336Z,66.90
2018-06-11T06:52:29.745Z,67.20
2018-06-11T06:54:58.137Z,66.90
2018-06-11T06:59:54.713Z,67.20
2018-06-11T07:02:23.103Z,66.50
2018-06-11T07:04:51.494Z,66.10
2018-06-11T07:07:19.949Z,66.10
2018-06-11T07:09:48.340Z,65.90
2018-06-11T07:12:16.861Z,66.00
2018-06-11T07:14:45.248Z,65.90
2018-06-11T07:17:13.612Z,65.50
2018-06-11T07:19:42.008Z,65.30
2018-06-11T07:22:10.436Z,65.20
2018-06-11T07:24:38.812Z,65.40
2018-06-11T07:27:07.200Z,65.00
2018-06-11T07:29:35.547Z,64.40
2018-06-11T07:32:03.973Z,64.40
2018-06-11T07:34:32.358Z,64.30
2018-06-11T07:37:00.729Z,63.80
2018-06-11T07:39:29.129Z,63.30
2018-06-11T07:41:57.525Z,63.00
2018-06-11T07:44:25.932Z,62.30
2018-06-11T07:46:54.335Z,62.70
2018-06-11T07:49:22.677Z,62.50
2018-06-11T07:51:51.054Z,61.80
2018-06-11T07:54:19.404Z,62.00
2018-06-11T07:56:47.788Z,61.80
2018-06-11T07:59:16.132Z,61.60
2018-06-11T08:01:44.513Z,61.50
2018-06-11T08:04:12.856Z,60.90
2018-06-11T08:06:41.231Z,61.00
2018-06-11T08:09:09.616Z,60.60
2018-06-11T08:11:38.012Z,60.40
2018-06-11T08:14:06.352Z,60.60
2018-06-11T08:16:34.713Z,60.90
2018-06-11T08:19:03.061Z,61.30
2018-06-11T08:21:31.447Z,61.30
2018-06-11T08:23:59.784Z,61.20
2018-06-11T08:26:28.157Z,61.00
2018-06-11T08:28:56.512Z,61.00
2018-06-11T08:31:24.886Z,60.70
2018-06-11T08:33:53.234Z,60.30
2018-06-11T08:36:21.612Z,60.40
2018-06-11T08:38:49.986Z,59.60
2018-06-11T08:41:18.384Z,59.00
2018-06-11T08:43:46.754Z,58.40
2018-06-11T08:48:43.224Z,57.60
2018-06-11T08:51:11.619Z,57.40
2018-06-11T08:56:08.089Z,56.50
2018-06-11T08:58:36.439Z,56.60
2018-06-11T09:01:04.814Z,55.80
2018-06-11T09:03:33.179Z,55.90
2018-06-11T09:06:01.552Z,55.80
2018-06-11T09:08:30.013Z,55.70
2018-06-11T09:10:58.388Z,55.40
2018-06-11T09:13:26.735Z,55.90
2018-06-11T09:15:55.114Z,55.90
2018-06-11T09:18:23.624Z,55.90
2018-06-11T09:20:51.856Z,56.10
2018-06-11T09:23:20.196Z,57.00
2018-06-11T09:25:48.596Z,56.90
2018-06-11T09:35:41.178Z,57.10
2018-06-11T09:40:37.629Z,56.30
2018-06-11T09:43:06.103Z,55.50
2018-06-11T09:45:34.440Z,55.60
2018-06-11T09:48:02.810Z,55.70
2018-06-11T09:50:31.150Z,54.90
2018-06-11T09:52:59.527Z,54.80
2018-06-11T09:55:27.873Z,54.80
2018-06-11T09:57:56.253Z,54.30
2018-06-11T10:00:29.887Z,54.30
2018-06-11T10:02:58.248Z,54.00
2018-06-11T10:05:26.590Z,53.70
2018-06-11T10:07:54.991Z,53.20
2018-06-11T10:10:23.328Z,53.00
2018-06-11T10:12:51.692Z,52.70
2018-06-11T10:17:48.127Z,52.10
2018-06-11T10:20:16.498Z,52.30
2018-06-11T10:22:44.867Z,51.60
2018-06-11T10:25:13.216Z,51.60
2018-06-11T10:27:41.602Z,50.60
2018-06-11T10:30:09.987Z,50.80
2018-06-11T10:32:38.352Z,50.90
2018-06-11T10:35:06.697Z,50.50
2018-06-11T10:37:35.080Z,50.10
2018-06-11T10:42:31.588Z,49.60
2018-06-11T10:44:59.928Z,50.00
2018-06-11T10:47:28.291Z,50.10
2018-06-11T10:54:52.799Z,50.60
2018-06-11T10:57:21.181Z,50.10
2018-06-11T10:59:49.529Z,49.60
2018-06-11T11:02:17.892Z,48.60
2018-06-11T11:04:46.257Z,48.30
2018-06-11T11:07:14.727Z,48.00
2018-06-11T11:09:43.070Z,47.90
2018-06-11T11:12:11.444Z,47.80
2018-06-11T11:14:39.812Z,47.20
2018-06-11T11:17:08.147Z,47.00
2018-06-11T11:19:36.500Z,46.70
2018-06-11T11:22:04.854Z,46.80
2018-06-11T11:24:33.228Z,46.60
2018-06-11T11:27:01.576Z,45.90
2018-06-11T11:29:29.945Z,45.30
2018-06-11T11:31:58.287Z,44.50
2018-06-11T11:34:26.660Z,44.60
2018-06-11T11:36:54.990Z,44.80
2018-06-11T11:39:23.364Z,45.20
2018-06-11T11:41:51.692Z,45.20
2018-06-11T11:44:20.072Z,44.80
2018-06-11T11:46:48.418Z,44.40
2018-06-11T11:49:16.792Z,44.10
2018-06-11T11:51:45.136Z,44.10
2018-06-11T11:54:13.504Z,43.70
2018-06-11T11:56:41.848Z,43.40
2018-06-11T11:59:10.205Z,43.10
2018-06-11T12:01:38.629Z,42.70
2018-06-11T12:04:06.982Z,42.40
2018-06-11T12:06:35.372Z,42.70
2018-06-11T12:09:06.053Z,42.00
2018-06-11T12:11:34.523Z,42.00
2018-06-11T12:14:02.882Z,41.60
2018-06-11T12:16:31.249Z,41.80
2018-06-11T12:19:00.103Z,41.60
2018-06-11T12:21:28.437Z,41.90
2018-06-11T12:23:56.780Z,41.80
2018-06-11T12:26:25.154Z,41.40
2018-06-11T12:28:53.488Z,40.80
2018-06-11T12:33:49.935Z,41.10
2018-06-11T12:36:18.331Z,39.70
2018-06-11T12:41:16.612Z,39.60
2018-06-11T12:43:44.951Z,39.90
2018-06-11T12:46:13.324Z,39.60
2018-06-11T12:48:41.694Z,39.40
2018-06-11T12:51:10.050Z,39.30
2018-06-11T12:53:38.409Z,39.00
2018-06-11T12:56:06.816Z,38.10
2018-06-11T12:58:35.168Z,38.60
2018-06-11T13:01:03.528Z,38.70
2018-06-11T13:03:32.077Z,38.40
2018-06-11T13:06:00.452Z,38.70
2018-06-11T13:08:30.585Z,38.80
2018-06-11T13:10:59.750Z,39.00
2018-06-11T13:13:28.495Z,38.80
2018-06-11T13:15:59.237Z,38.40
2018-06-11T13:18:28.442Z,38.60
2018-06-11T13:20:58.103Z,38.70
2018-06-11T13:23:26.476Z,38.80
2018-06-11T13:25:55.378Z,38.20
2018-06-11T13:28:24.343Z,38.20
2018-06-11T13:30:53.222Z,37.40
2018-06-11T13:33:21.732Z,37.20
2018-06-11T13:35:50.062Z,37.10
2018-06-11T13:38:18.438Z,37.00
2018-06-11T13:40:46.781Z,36.80
2018-06-11T13:43:15.154Z,36.90
2018-06-11T13:45:43.488Z,37.40
2018-06-11T13:48:11.867Z,37.40
2018-06-11T13:50:40.191Z,37.20
2018-06-11T13:53:08.574Z,37.00
2018-06-11T13:55:36.909Z,37.20
2018-06-11T13:58:05.469Z,36.60
2018-06-11T14:00:33.796Z,36.50
2018-06-11T14:03:02.152Z,36.30
2018-06-11T14:05:30.484Z,35.70
2018-06-11T14:07:58.888Z,35.50
2018-06-11T14:10:27.213Z,35.50
2018-06-11T14:15:23.634Z,34.80
2018-06-11T14:17:51.961Z,34.90
2018-06-11T14:20:20.347Z,34.90
2018-06-11T14:22:48.680Z,34.90
2018-06-11T14:25:17.039Z,34.70
2018-06-11T14:27:45.371Z,34.70
2018-06-11T14:30:13.732Z,34.50
2018-06-11T14:32:42.068Z,33.90
2018-06-11T14:35:10.435Z,33.50
2018-06-11T14:37:38.781Z,33.40
2018-06-11T14:40:07.185Z,33.20
2018-06-11T14:42:35.611Z,33.60
2018-06-11T14:45:03.999Z,34.00
2018-06-11T14:47:32.341Z,34.00
2018-06-11T14:50:00.711Z,33.80
2018-06-11T14:52:34.302Z,33.40
2018-06-11T14:55:02.674Z,33.50
2018-06-11T14:57:31.028Z,32.90
2018-06-11T15:02:27.455Z,33.40
2018-06-11T15:04:55.812Z,33.20
2018-06-11T15:07:24.176Z,32.70
2018-06-11T15:09:52.545Z,32.70
2018-06-11T15:12:20.875Z,32.40
2018-06-11T15:14:49.228Z,32.30
2018-06-11T15:17:17.552Z,32.40
2018-06-11T15:22:13.988Z,32.50
2018-06-11T15:24:42.311Z,32.40
2018-06-11T15:27:10.678Z,32.40
2018-06-11T15:29:38.996Z,32.40
2018-06-11T15:32:07.364Z,32.50
2018-06-11T15:34:35.701Z,32.30
2018-06-11T15:37:04.083Z,32.40
2018-06-11T15:39:32.409Z,32.20
2018-06-11T15:42:00.790Z,32.20
2018-06-11T15:44:29.161Z,32.20
2018-06-11T15:46:57.560Z,31.60
2018-06-11T15:49:25.902Z,31.50
2018-06-11T15:51:54.265Z,31.60
2018-06-11T15:54:22.591Z,31.50
2018-06-11T15:56:51.028Z,31.80
2018-06-11T15:59:19.359Z,32.20
2018-06-11T16:06:43.894Z,32.50
2018-06-11T16:09:12.259Z,32.70
2018-06-11T16:11:40.628Z,33.00
2018-06-11T16:14:09.339Z,32.50
2018-06-11T16:16:37.772Z,32.80
2018-06-11T16:19:06.127Z,33.00
2018-06-11T16:21:34.487Z,33.50
2018-06-11T16:24:02.821Z,33.90
2018-06-11T16:26:31.148Z,34.40
2018-06-11T16:33:55.636Z,34.20
2018-06-11T16:36:23.968Z,34.30
2018-06-11T16:38:52.323Z,34.50
2018-06-11T16:41:20.673Z,34.60
2018-06-11T16:43:49.048Z,34.90
2018-06-11T16:46:17.380Z,35.40
2018-06-11T16:48:45.756Z,35.70
2018-06-11T16:51:14.104Z,36.10
2018-06-11T16:53:42.473Z,36.30
2018-06-11T16:56:10.813Z,36.50
2018-06-11T16:58:39.181Z,36.80
2018-06-11T17:01:07.516Z,37.20
2018-06-11T17:03:35.875Z,37.30
2018-06-11T17:06:04.208Z,37.50
2018-06-11T17:11:00.668Z,37.70
2018-06-11T17:13:29.036Z,37.60
2018-06-11T17:18:25.465Z,37.80
2018-06-11T17:20:53.796Z,38.30
2018-06-11T17:23:22.160Z,37.60
2018-06-11T17:25:50.505Z,37.50
2018-06-11T17:28:18.864Z,37.40
2018-06-11T17:30:47.222Z,37.20
2018-06-11T17:33:15.548Z,37.20
2018-06-11T17:35:43.929Z,37.30
2018-06-11T17:38:12.272Z,37.20
2018-06-11T17:40:40.627Z,37.30
2018-06-11T17:43:09.240Z,37.90
2018-06-11T17:45:37.613Z,38.10
2018-06-11T17:48:06.076Z,38.30
2018-06-11T17:50:34.466Z,38.90
2018-06-11T17:53:02.793Z,39.20
2018-06-11T17:55:31.163Z,39.50
2018-06-11T17:57:59.497Z,40.40
2018-06-11T18:00:27.909Z,40.10
2018-06-11T18:02:56.694Z,40.30
2018-06-11T18:05:25.073Z,40.40
2018-06-11T18:07:53.460Z,40.70
2018-06-11T18:10:21.836Z,40.80
2018-06-11T18:12:50.159Z,41.00
2018-06-11T18:15:18.520Z,41.30
2018-06-11T18:17:46.891Z,41.60
2018-06-11T18:20:15.270Z,41.40
2018-06-11T18:22:43.640Z,42.20
2018-06-11T18:25:12.027Z,42.50
2018-06-11T18:27:40.392Z,43.00
2018-06-11T18:30:08.793Z,43.10
2018-06-11T18:32:37.131Z,43.30
2018-06-11T18:35:05.512Z,43.50
2018-06-11T18:37:33.852Z,43.60
2018-06-11T18:40:02.226Z,43.80
2018-06-11T18:42:31.131Z,43.90
2018-06-11T18:44:59.509Z,44.10
2018-06-11T18:47:27.854Z,44.30
2018-06-11T18:49:56.249Z,44.60
2018-06-11T18:54:52.759Z,45.30
2018-06-11T18:57:21.104Z,45.80
2018-06-11T18:59:49.457Z,46.00
2018-06-11T19:02:17.829Z,46.20
2018-06-11T19:04:46.231Z,46.30
2018-06-11T19:07:14.614Z,47.20
2018-06-11T19:09:43.000Z,46.90
2018-06-11T19:12:11.379Z,47.20
2018-06-11T19:14:39.721Z,47.50
2018-06-11T19:17:08.100Z,47.70
2018-06-11T19:19:36.442Z,48.00
2018-06-11T19:22:04.824Z,48.20
2018-06-11T19:24:33.176Z,48.20
2018-06-11T19:27:01.556Z,48.50
2018-06-11T19:29:29.879Z,48.70
2018-06-11T19:31:58.305Z,49.00
2018-06-11T19:34:26.649Z,49.30
2018-06-11T19:36:55.011Z,49.50
2018-06-11T19:39:23.371Z,49.70
2018-06-11T19:41:51.793Z,49.90
2018-06-11T19:44:20.197Z,50.10
2018-06-11T19:46:48.608Z,50.30
2018-06-11T19:49:16.954Z,50.20
2018-06-11T19:54:13.447Z,50.60
2018-06-11T19:56:41.837Z,50.90
2018-06-11T20:01:38.260Z,51.20
2018-06-11T20:04:06.584Z,51.60
2018-06-11T20:06:34.964Z,51.70
2018-06-11T20:09:03.391Z,52.10
2018-06-11T20:11:31.759Z,52.30
2018-06-11T20:14:00.084Z,52.60
2018-06-11T20:16:28.461Z,52.80
2018-06-11T20:18:56.807Z,53.10
2018-06-11T20:21:25.168Z,53.30
2018-06-11T20:26:21.901Z,54.00
2018-06-11T20:28:52.300Z,53.80
2018-06-11T20:31:20.758Z,54.10
2018-06-11T20:33:49.093Z,54.70
2018-06-11T20:36:17.476Z,55.10
2018-06-11T20:38:45.803Z,55.30
2018-06-11T20:41:14.144Z,55.20
2018-06-11T20:43:42.520Z,55.20
2018-06-11T20:46:10.864Z,55.60
2018-06-11T20:48:39.237Z,55.80
2018-06-11T20:51:07.583Z,56.00
2018-06-11T20:53:35.944Z,56.20
2018-06-11T20:58:32.383Z,56.80
2018-06-11T21:01:00.728Z,57.20
2018-06-11T21:03:29.186Z,57.40
2018-06-11T21:05:57.448Z,57.30
2018-06-11T21:08:25.852Z,57.40
2018-06-11T21:10:56.843Z,57.50
2018-06-11T21:13:28.215Z,57.60
2018-06-11T21:15:59.263Z,57.80
2018-06-11T21:18:30.002Z,57.90
2018-06-11T21:23:28.435Z,58.30
2018-06-11T21:25:56.828Z,58.70
2018-06-11T21:28:25.202Z,59.00
2018-06-11T21:30:53.523Z,59.20
2018-06-11T21:33:21.884Z,59.50
2018-06-11T21:35:50.212Z,59.80
2018-06-11T21:38:18.561Z,60.00
2018-06-11T21:40:46.880Z,60.20
2018-06-11T21:43:15.231Z,60.50
2018-06-11T21:45:44.403Z,61.00
2018-06-11T21:48:12.859Z,61.30
2018-06-11T21:50:41.191Z,61.70
2018-06-11T21:53:09.546Z,61.80
2018-06-11T21:55:37.871Z,61.80
2018-06-11T21:58:06.236Z,62.20
2018-06-11T22:00:34.620Z,61.50
2018-06-11T22:03:02.993Z,61.60
2018-06-11T22:05:31.329Z,61.70
2018-06-11T22:07:59.720Z,62.00
2018-06-11T22:10:28.050Z,62.10
2018-06-11T22:12:56.439Z,62.40
2018-06-11T22:15:24.775Z,62.80
2018-06-11T22:17:53.144Z,62.90
2018-06-11T22:20:21.480Z,62.90
2018-06-11T22:22:49.843Z,62.90
2018-06-11T22:25:18.181Z,62.80
2018-06-11T22:30:14.620Z,63.50
2018-06-11T22:32:42.960Z,63.20
2018-06-11T22:35:11.331Z,63.50
2018-06-11T22:37:39.671Z,63.40
2018-06-11T22:45:04.192Z,64.00
2018-06-11T22:47:32.521Z,65.00
2018-06-11T22:50:00.879Z,64.70
2018-06-11T22:52:29.207Z,64.10
2018-06-11T22:54:57.575Z,64.40
2018-06-11T22:57:25.916Z,64.60
2018-06-11T22:59:54.279Z,64.80
2018-06-11T23:04:50.701Z,65.50
2018-06-11T23:07:19.071Z,65.60
2018-06-11T23:09:47.439Z,65.90
2018-06-11T23:12:15.759Z,66.10
2018-06-11T23:14:44.115Z,66.20
2018-06-11T23:17:12.465Z,66.60
2018-06-11T23:19:40.828Z,66.60
2018-06-11T23:22:09.156Z,66.80
2018-06-11T23:24:37.539Z,67.00
2018-06-11T23:27:05.868Z,67.20
2018-06-11T23:29:34.262Z,67.50
2018-06-11T23:32:02.840Z,67.70
2018-06-11T23:34:31.249Z,67.70
2018-06-11T23:36:59.593Z,67.70
2018-06-11T23:39:27.986Z,67.90
2018-06-11T23:41:56.311Z,67.80
2018-06-11T23:46:52.756Z,68.00
2018-06-11T23:49:21.108Z,68.00
2018-06-11T23:51:49.439Z,67.90
2018-06-11T23:54:17.804Z,68.10
2018-06-11T23:56:46.146Z,67.90
2018-06-11T23:59:14.511Z,67.80
